Dara'a, Syria

9:40 AM EEST on August 01, 2014 (GMT +0300)
Marka International (OJAM) Elev 2556 ft | 31.97 °N, 35.99 °E | Change Station

Current weather conditions updated 40 minutes ago

Haze
Haze
81 °F
Feels Like 81 °F
N
6
Wind Variable Wind from WSW

Today is forecast to be nearly the same temperature as yesterday.

Today
High -- | Low -- °F
--% Chance of Precip.
Yesterday
High -- | Low -- °F
Precip. -- in
5:49 AM 7:33 PM
Waxing Crescent, 24% visible
Pressure 29.86 in
Visibility 3.1 miles
Clouds
Dew Point 32 °F
Humidity 17%
Rainfall 0.00 in
Snow Depth Not available.
UV Not available.
Pollen Not available.
Air Quality Not available.
Flu Activity Not available.
METAR OJAM 010600Z 25005KT 5000 HZ NSC 27/00 Q1011 NOSIG

More Conditions Fewer Conditions

Pressure 29.86 in
Visibility 3.1 miles
Clouds
Dew Point 32 °F
Humidity 17%
Rainfall 0.00 in
Snow Depth Not available.
UV Not available.
Pollen Not available.
Air Quality Not available.
Flu Activity Not available.
METAR OJAM 010600Z 25005KT 5000 HZ NSC 27/00 Q1011 NOSIG

More Conditions Fewer Conditions

10-Day Weather Forecast

Almanac

Astronomy

Aug. 01, 2014 Rise Set
Actual Time 5:49 AM EEST 7:33 PM EEST
Civil Twilight 5:22 AM EEST 8:00 PM EEST
Nautical Twilight 4:50 AM EEST 8:33 PM EEST
Astronomical Twilight 4:16 AM EEST 9:07 PM EEST
Moon 10:34 AM EEST 10:28 PM EEST
Length of Visible Light 14h 38m
Length of Day
13h 44m
Tomorrow will be 1m 29s shorter.
Waxing Crescent, 24% of the Moon is Illuminated
Today
Waxing Crescent
Aug 3
First Quarter
Aug 10
Full
Aug 17
Last Quarter
Aug 25
New

Yesterday's Extremes

Country Highs Country Lows

Community

WunderPhotos

Upload Photos

1,739,522 photos uploaded!

Nearby

Snow Depth

Not available.

Earthquake Activity

City Distance Mag. Time & Date
No recent earthquake activity has been reported nearby.
Minimum magnitude displayed is 2.5.

Coastal Water Temperatures

Place Temperature
No Stations Reporting

Nearby Weather Stations

There are no personal weather stations in this area.